createdAt,value
2017-12-21T00:00:39.948Z,24.30
2017-12-21T00:01:39.908Z,24.10
2017-12-21T00:02:39.869Z,24.70
2017-12-21T00:03:39.834Z,21.30
2017-12-21T00:04:39.785Z,22.00
2017-12-21T00:05:39.753Z,21.30
2017-12-21T00:06:39.708Z,23.90
2017-12-21T00:07:39.674Z,21.20
2017-12-21T00:08:39.628Z,20.90
2017-12-21T00:09:39.582Z,19.80
2017-12-21T00:10:39.543Z,20.10
2017-12-21T00:11:39.504Z,19.90
2017-12-21T00:12:39.465Z,21.50
2017-12-21T00:13:39.433Z,20.30
2017-12-21T00:14:39.382Z,22.40
2017-12-21T00:15:39.345Z,21.00
2017-12-21T00:16:39.305Z,20.60
2017-12-21T00:17:39.263Z,18.80
2017-12-21T00:18:39.220Z,19.30
2017-12-21T00:19:39.184Z,21.30
2017-12-21T00:20:39.150Z,19.60
2017-12-21T00:21:39.111Z,19.50
2017-12-21T00:22:39.064Z,17.40
2017-12-21T00:23:39.024Z,17.70
2017-12-21T00:24:39.003Z,18.40
2017-12-21T00:25:38.940Z,17.60
2017-12-21T00:26:38.902Z,18.50
2017-12-21T00:27:38.864Z,19.40
2017-12-21T00:28:38.822Z,17.40
2017-12-21T00:29:38.787Z,17.40
2017-12-21T00:30:38.741Z,15.70
2017-12-21T00:31:38.730Z,17.60
2017-12-21T00:32:38.674Z,15.10
2017-12-21T00:33:38.623Z,14.80
2017-12-21T00:34:38.580Z,15.70
2017-12-21T00:35:38.542Z,16.70
2017-12-21T00:36:38.500Z,16.00
2017-12-21T00:37:38.465Z,17.80
2017-12-21T00:38:38.467Z,17.10
2017-12-21T00:39:38.378Z,17.00
2017-12-21T00:40:38.337Z,15.60
2017-12-21T00:41:38.299Z,14.20
2017-12-21T00:42:38.269Z,14.00
2017-12-21T00:43:38.223Z,15.00
2017-12-21T00:44:38.184Z,15.70
2017-12-21T00:45:38.145Z,16.40
2017-12-21T00:46:38.097Z,17.10
2017-12-21T00:47:38.099Z,18.30
2017-12-21T00:48:38.023Z,15.20
2017-12-21T00:49:37.975Z,16.40
2017-12-21T00:50:37.945Z,14.20
2017-12-21T00:51:37.897Z,13.50
2017-12-21T00:52:37.861Z,14.90
2017-12-21T00:53:37.823Z,14.80
2017-12-21T00:54:37.777Z,16.60
2017-12-21T00:55:37.746Z,12.20
2017-12-21T00:56:37.698Z,13.20
2017-12-21T00:57:37.657Z,14.60
2017-12-21T00:58:37.618Z,16.10
2017-12-21T00:59:37.583Z,15.10
2017-12-21T01:00:37.543Z,15.30
2017-12-21T01:01:37.496Z,16.00
2017-12-21T01:02:37.458Z,17.00
2017-12-21T01:03:37.437Z,16.10
2017-12-21T01:04:37.377Z,15.30
2017-12-21T01:05:37.338Z,18.80
2017-12-21T01:06:37.303Z,18.50
2017-12-21T01:07:37.257Z,15.60
2017-12-21T01:08:37.242Z,17.50
2017-12-21T01:09:37.178Z,14.80
2017-12-21T01:10:37.139Z,15.00
2017-12-21T01:11:37.105Z,16.80
2017-12-21T01:12:37.064Z,18.20
2017-12-21T01:13:37.018Z,16.00
2017-12-21T01:14:36.982Z,15.00
2017-12-21T01:15:36.946Z,15.50
2017-12-21T01:16:36.899Z,15.30
2017-12-21T01:17:36.878Z,15.90
2017-12-21T01:18:36.817Z,16.60
2017-12-21T01:19:36.776Z,17.70
2017-12-21T01:20:36.737Z,16.50
2017-12-21T01:21:36.704Z,15.70
2017-12-21T01:22:36.655Z,14.70
2017-12-21T01:23:36.622Z,16.00
2017-12-21T01:24:36.595Z,17.10
2017-12-21T01:25:36.542Z,15.30
2017-12-21T01:26:36.497Z,15.30
2017-12-21T01:27:36.477Z,15.40
2017-12-21T01:28:36.423Z,14.90
2017-12-21T01:29:36.392Z,15.70
2017-12-21T01:30:36.373Z,16.10
2017-12-21T01:31:36.368Z,15.20
2017-12-21T01:32:36.254Z,15.30
2017-12-21T01:33:36.252Z,15.80
2017-12-21T01:34:36.177Z,12.20
2017-12-21T01:35:36.136Z,14.60
2017-12-21T01:36:36.095Z,13.90
2017-12-21T01:37:36.056Z,14.30
2017-12-21T01:38:36.019Z,13.00
2017-12-21T01:39:35.976Z,15.10
2017-12-21T01:40:35.943Z,14.30
2017-12-21T01:41:35.896Z,13.90
2017-12-21T01:42:35.860Z,14.20
2017-12-21T01:43:35.818Z,13.80
2017-12-21T01:44:35.775Z,14.70
2017-12-21T01:45:35.737Z,13.40
2017-12-21T01:46:35.699Z,13.10
2017-12-21T01:47:35.655Z,13.80
2017-12-21T01:48:35.614Z,12.70
2017-12-21T01:49:35.574Z,12.40
2017-12-21T01:50:35.543Z,11.30
2017-12-21T01:51:35.497Z,12.30
2017-12-21T01:52:35.534Z,11.10
2017-12-21T01:53:35.433Z,10.00
2017-12-21T01:54:35.464Z,9.40
2017-12-21T01:55:35.335Z,10.40
2017-12-21T01:56:35.296Z,11.00
2017-12-21T01:57:35.254Z,10.10
2017-12-21T01:58:35.249Z,11.80
2017-12-21T01:59:35.188Z,10.80
2017-12-21T02:00:35.144Z,9.30
2017-12-21T02:01:35.121Z,9.60
2017-12-21T02:02:35.057Z,12.10
2017-12-21T02:03:35.024Z,9.60
2017-12-21T02:04:34.981Z,9.30
2017-12-21T02:05:34.938Z,8.40
2017-12-21T02:06:34.912Z,9.20
2017-12-21T02:07:34.919Z,8.90
2017-12-21T02:08:34.843Z,9.50
2017-12-21T02:09:34.797Z,9.30
2017-12-21T02:10:34.735Z,10.20
2017-12-21T02:11:34.699Z,8.60
2017-12-21T02:12:34.655Z,9.90
2017-12-21T02:13:34.620Z,9.90
2017-12-21T02:14:34.573Z,9.60
2017-12-21T02:15:34.533Z,7.10
2017-12-21T02:16:34.546Z,9.60
2017-12-21T02:17:34.452Z,8.30
2017-12-21T02:18:34.416Z,9.20
2017-12-21T02:19:34.372Z,7.70
2017-12-21T02:20:34.369Z,8.90
2017-12-21T02:21:34.296Z,8.50
2017-12-21T02:22:34.251Z,7.40
2017-12-21T02:23:34.217Z,8.90
2017-12-21T02:24:34.174Z,7.70
2017-12-21T02:25:34.131Z,7.00
2017-12-21T02:26:34.093Z,7.80
2017-12-21T02:27:34.058Z,6.80
2017-12-21T02:28:34.021Z,7.20
2017-12-21T02:29:33.983Z,7.80
2017-12-21T02:30:33.932Z,7.90
2017-12-21T02:31:33.896Z,7.90
2017-12-21T02:32:33.852Z,6.70
2017-12-21T02:33:33.812Z,5.90
2017-12-21T02:34:33.776Z,6.40
2017-12-21T02:35:33.737Z,7.60
2017-12-21T02:36:33.690Z,7.50
2017-12-21T02:37:33.661Z,7.90
2017-12-21T02:38:33.623Z,6.90
2017-12-21T02:39:33.573Z,7.30
2017-12-21T02:40:33.532Z,6.90
2017-12-21T02:41:33.494Z,8.10
2017-12-21T02:42:33.460Z,7.00
2017-12-21T02:43:33.414Z,6.90
2017-12-21T02:44:33.372Z,8.40
2017-12-21T02:45:33.333Z,6.40
2017-12-21T02:46:33.290Z,5.70
2017-12-21T02:47:33.260Z,6.60
2017-12-21T02:48:33.222Z,6.80
2017-12-21T02:49:33.172Z,6.50
2017-12-21T02:50:33.137Z,7.10
2017-12-21T02:51:33.096Z,6.90
2017-12-21T02:52:33.051Z,7.20
2017-12-21T02:53:33.012Z,7.60
2017-12-21T02:54:32.995Z,8.30
2017-12-21T02:55:32.934Z,8.80
2017-12-21T02:56:32.896Z,7.70
2017-12-21T02:57:32.860Z,9.80
2017-12-21T02:58:32.812Z,7.20
2017-12-21T02:59:32.773Z,9.70
2017-12-21T03:00:32.735Z,7.70
2017-12-21T03:01:32.694Z,9.20
2017-12-21T03:02:32.649Z,8.40
2017-12-21T03:03:32.612Z,6.50
2017-12-21T03:04:32.574Z,6.30
2017-12-21T03:05:32.538Z,7.70
2017-12-21T03:06:32.491Z,8.20
2017-12-21T03:07:32.454Z,8.70
2017-12-21T03:08:32.410Z,7.60
2017-12-21T03:09:32.369Z,8.00
2017-12-21T03:10:32.329Z,9.20
2017-12-21T03:11:32.287Z,8.70
2017-12-21T03:12:32.249Z,7.40
2017-12-21T03:13:32.209Z,8.60
2017-12-21T03:14:32.167Z,8.30
2017-12-21T03:15:32.129Z,8.90
2017-12-21T03:16:32.090Z,10.10
2017-12-21T03:17:32.050Z,9.10
2017-12-21T03:18:32.014Z,10.70
2017-12-21T03:19:31.971Z,11.10
2017-12-21T03:20:31.929Z,11.00
2017-12-21T03:21:31.893Z,9.80
2017-12-21T03:22:31.852Z,12.00
2017-12-21T03:23:31.814Z,11.00
2017-12-21T03:24:31.773Z,9.80
2017-12-21T03:25:31.729Z,9.70
2017-12-21T03:26:31.689Z,10.30
2017-12-21T03:27:31.650Z,11.50
2017-12-21T03:28:31.609Z,12.60
2017-12-21T03:29:31.573Z,10.60
2017-12-21T03:30:31.543Z,10.30
2017-12-21T03:31:31.495Z,10.60
2017-12-21T03:32:31.452Z,10.20
2017-12-21T03:33:31.416Z,13.00
2017-12-21T03:34:31.369Z,10.20
2017-12-21T03:35:31.335Z,10.20
2017-12-21T03:36:31.295Z,10.60
2017-12-21T03:37:31.256Z,11.00
2017-12-21T03:38:31.210Z,12.70
2017-12-21T03:39:31.169Z,12.20
2017-12-21T03:40:31.139Z,12.80
2017-12-21T03:41:31.097Z,11.30
2017-12-21T03:42:31.052Z,12.90
2017-12-21T03:43:31.021Z,12.50
2017-12-21T03:44:30.977Z,13.50
2017-12-21T03:45:30.937Z,13.90
2017-12-21T03:46:30.892Z,11.40
2017-12-21T03:47:30.851Z,12.30
2017-12-21T03:48:30.815Z,12.00
2017-12-21T03:49:30.774Z,16.90
2017-12-21T03:50:30.732Z,13.10
2017-12-21T03:51:30.691Z,15.40
2017-12-21T03:52:30.653Z,14.90
2017-12-21T03:53:30.614Z,16.10
2017-12-21T03:54:30.572Z,12.40
2017-12-21T03:55:30.538Z,11.80
2017-12-21T03:56:30.493Z,13.20
2017-12-21T03:57:30.451Z,14.30
2017-12-21T03:58:30.413Z,15.60
2017-12-21T03:59:30.372Z,14.80
2017-12-21T04:00:30.330Z,15.70
2017-12-21T04:01:30.290Z,15.20
2017-12-21T04:02:30.261Z,12.50
2017-12-21T04:03:30.213Z,14.60
2017-12-21T04:04:30.173Z,13.60
2017-12-21T04:05:30.129Z,17.10
2017-12-21T04:06:30.090Z,14.90
2017-12-21T04:07:30.051Z,15.70
2017-12-21T04:08:30.013Z,17.20
2017-12-21T04:09:29.992Z,17.40
2017-12-21T04:10:29.928Z,16.80
2017-12-21T04:11:29.890Z,14.90
2017-12-21T04:12:29.849Z,16.10
2017-12-21T04:13:29.814Z,16.80
2017-12-21T04:14:29.780Z,13.80
2017-12-21T04:15:29.731Z,15.30
2017-12-21T04:16:29.692Z,16.00
2017-12-21T04:17:29.653Z,16.90
2017-12-21T04:18:29.611Z,14.20
2017-12-21T04:19:29.570Z,15.10
2017-12-21T04:20:29.534Z,16.10
2017-12-21T04:21:29.492Z,15.30
2017-12-21T04:22:29.450Z,16.20
2017-12-21T04:23:29.420Z,15.40
2017-12-21T04:24:29.372Z,16.30
2017-12-21T04:25:29.332Z,16.50
2017-12-21T04:26:29.294Z,14.00
2017-12-21T04:27:29.249Z,13.80
2017-12-21T04:28:29.211Z,16.10
2017-12-21T04:29:29.172Z,17.60
2017-12-21T04:30:29.139Z,17.40
2017-12-21T04:31:29.091Z,16.00
2017-12-21T04:32:29.051Z,15.90
2017-12-21T04:33:29.016Z,16.00
2017-12-21T04:34:28.970Z,15.60
2017-12-21T04:35:28.933Z,13.70
2017-12-21T04:36:28.930Z,15.40
2017-12-21T04:37:28.849Z,14.20
2017-12-21T04:38:28.810Z,14.10
2017-12-21T04:39:28.774Z,15.30
2017-12-21T04:40:28.730Z,14.10
2017-12-21T04:41:28.689Z,17.80
2017-12-21T04:42:28.655Z,16.80
2017-12-21T04:43:28.610Z,16.40
2017-12-21T04:44:28.570Z,15.70
2017-12-21T04:45:28.527Z,18.30
2017-12-21T04:46:28.494Z,18.20
2017-12-21T04:47:28.452Z,17.40
2017-12-21T04:48:28.422Z,19.20
2017-12-21T04:49:28.370Z,17.70
2017-12-21T04:50:28.329Z,18.60
2017-12-21T04:51:28.289Z,18.90
2017-12-21T04:52:28.248Z,20.20
2017-12-21T04:53:28.209Z,19.60
2017-12-21T04:54:28.168Z,21.00
2017-12-21T04:55:28.139Z,18.10
2017-12-21T04:56:28.086Z,20.50
2017-12-21T04:57:28.050Z,18.40
2017-12-21T04:58:28.013Z,19.10
2017-12-21T04:59:27.969Z,19.20
2017-12-21T05:00:27.928Z,17.20
2017-12-21T05:01:27.885Z,17.80
2017-12-21T05:02:27.843Z,18.80
2017-12-21T05:03:27.816Z,18.10
2017-12-21T05:04:27.764Z,19.70
2017-12-21T05:05:27.724Z,20.50
2017-12-21T05:06:27.686Z,18.40
2017-12-21T05:07:27.643Z,20.90
2017-12-21T05:08:27.612Z,23.00
2017-12-21T05:09:27.564Z,19.00
2017-12-21T05:10:27.524Z,20.70
2017-12-21T05:11:27.485Z,22.30
2017-12-21T05:12:27.448Z,24.50
2017-12-21T05:13:27.403Z,24.40
2017-12-21T05:14:27.365Z,21.20
2017-12-21T05:15:27.323Z,24.40
2017-12-21T05:16:27.282Z,25.30
2017-12-21T05:17:27.243Z,25.70
2017-12-21T05:18:27.203Z,25.40
2017-12-21T05:19:27.164Z,25.10
2017-12-21T05:20:27.122Z,25.90
2017-12-21T05:21:27.085Z,24.30
2017-12-21T05:22:27.042Z,24.40
2017-12-21T05:23:27.002Z,23.70
2017-12-21T05:24:26.960Z,27.10
2017-12-21T05:25:26.920Z,23.60
2017-12-21T05:26:26.879Z,28.00
2017-12-21T05:27:26.839Z,24.60
2017-12-21T05:28:26.802Z,27.50
2017-12-21T05:29:26.783Z,27.70
2017-12-21T05:30:26.724Z,27.00
2017-12-21T05:31:26.698Z,23.00
2017-12-21T05:32:26.643Z,26.30
2017-12-21T05:33:26.599Z,26.50
2017-12-21T05:34:26.557Z,25.30
2017-12-21T05:35:26.521Z,28.10
2017-12-21T05:36:26.479Z,27.70
2017-12-21T05:37:26.453Z,29.20
2017-12-21T05:38:26.401Z,26.80
2017-12-21T05:39:26.358Z,29.70
2017-12-21T05:40:26.317Z,26.50
2017-12-21T05:41:26.276Z,27.50
2017-12-21T05:42:26.237Z,27.90
2017-12-21T05:43:26.200Z,30.50
2017-12-21T05:44:26.157Z,27.50
2017-12-21T05:45:26.116Z,26.90
2017-12-21T05:46:26.077Z,32.50
2017-12-21T05:47:26.036Z,31.60
2017-12-21T05:48:25.995Z,31.20
2017-12-21T05:49:25.961Z,29.00
2017-12-21T05:50:25.922Z,29.20
2017-12-21T05:51:25.873Z,29.30
2017-12-21T05:52:25.836Z,26.20
2017-12-21T05:53:25.793Z,24.40
2017-12-21T05:54:25.750Z,27.10
2017-12-21T05:55:25.715Z,28.50
2017-12-21T05:56:25.675Z,28.40
2017-12-21T05:57:25.639Z,27.40
2017-12-21T05:58:25.592Z,26.90
2017-12-21T05:59:25.557Z,25.70
2017-12-21T06:00:25.512Z,29.60
2017-12-21T06:01:25.479Z,25.30
2017-12-21T06:02:25.438Z,25.40
2017-12-21T06:03:25.391Z,25.10
2017-12-21T06:04:25.354Z,27.80
2017-12-21T06:05:25.320Z,25.50
2017-12-21T06:06:25.275Z,27.40
2017-12-21T06:07:25.234Z,26.70
2017-12-21T06:08:25.194Z,28.80
2017-12-21T06:09:25.153Z,33.70
2017-12-21T06:10:25.117Z,30.10
2017-12-21T06:11:25.070Z,27.90
2017-12-21T06:12:25.031Z,24.60
2017-12-21T06:13:24.988Z,24.00
2017-12-21T06:14:24.950Z,26.90
2017-12-21T06:15:24.911Z,26.10
2017-12-21T06:16:24.870Z,24.10
2017-12-21T06:17:24.830Z,23.30
2017-12-21T06:18:24.800Z,23.90
2017-12-21T06:19:24.753Z,23.60
2017-12-21T06:20:24.710Z,20.50
2017-12-21T06:21:24.679Z,25.20
2017-12-21T06:22:24.633Z,24.20
2017-12-21T06:23:24.589Z,22.70
2017-12-21T06:24:24.560Z,21.20
2017-12-21T06:25:24.508Z,21.40
2017-12-21T06:26:24.472Z,25.00
2017-12-21T06:27:24.427Z,22.50
2017-12-21T06:28:24.386Z,21.20
2017-12-21T06:29:24.351Z,22.50
2017-12-21T06:30:24.314Z,22.50
2017-12-21T06:31:24.278Z,22.20
2017-12-21T06:32:24.236Z,21.10
2017-12-21T06:33:24.191Z,21.60
2017-12-21T06:34:24.147Z,20.60
2017-12-21T06:35:24.107Z,21.50
2017-12-21T06:36:24.071Z,18.40
2017-12-21T06:37:24.026Z,19.00
2017-12-21T06:38:23.988Z,20.20
2017-12-21T06:39:23.961Z,21.10
2017-12-21T06:40:23.915Z,20.40
2017-12-21T06:41:23.872Z,19.20
2017-12-21T06:42:23.828Z,19.90
2017-12-21T06:43:23.793Z,21.70
2017-12-21T06:44:23.747Z,21.20
2017-12-21T06:45:23.756Z,20.20
2017-12-21T06:46:23.684Z,19.20
2017-12-21T06:47:23.633Z,19.80
2017-12-21T06:48:23.588Z,21.00
2017-12-21T06:49:23.547Z,21.60
2017-12-21T06:50:23.511Z,21.60
2017-12-21T06:51:23.475Z,22.50
2017-12-21T06:52:23.433Z,19.90
2017-12-21T06:53:23.400Z,22.20
2017-12-21T06:54:23.345Z,21.00
2017-12-21T06:55:23.316Z,22.30
2017-12-21T06:56:23.271Z,18.90
2017-12-21T06:57:23.229Z,18.10
2017-12-21T06:58:23.190Z,18.00
2017-12-21T06:59:23.150Z,21.00
2017-12-21T07:00:23.111Z,20.20
2017-12-21T07:01:23.070Z,21.30
2017-12-21T07:02:23.033Z,18.60
2017-12-21T07:03:22.993Z,23.40
2017-12-21T07:04:22.954Z,21.20
2017-12-21T07:05:22.935Z,19.60
2017-12-21T07:06:22.896Z,20.70
2017-12-21T07:07:22.828Z,21.60
2017-12-21T07:08:22.789Z,19.70
2017-12-21T07:09:22.748Z,19.70
2017-12-21T07:10:22.712Z,21.30
2017-12-21T07:11:22.670Z,20.50
2017-12-21T07:12:22.640Z,19.80
2017-12-21T07:13:22.591Z,22.30
2017-12-21T07:14:22.570Z,21.70
2017-12-21T07:15:22.511Z,21.50
2017-12-21T07:16:22.471Z,22.00
2017-12-21T07:17:22.441Z,23.20
2017-12-21T07:18:22.392Z,21.30
2017-12-21T07:19:22.374Z,20.80
2017-12-21T07:20:22.318Z,22.90
2017-12-21T07:21:22.274Z,25.50
2017-12-21T07:22:22.242Z,20.00
2017-12-21T07:23:22.193Z,19.90
2017-12-21T07:24:22.155Z,22.20
2017-12-21T07:25:22.114Z,21.30
2017-12-21T07:26:22.073Z,19.70
2017-12-21T07:27:22.034Z,20.70
2017-12-21T07:28:21.998Z,20.50
2017-12-21T07:29:21.955Z,19.90
2017-12-21T07:30:21.916Z,20.40
2017-12-21T07:31:21.878Z,19.80
2017-12-21T07:32:21.832Z,19.70
2017-12-21T07:33:21.793Z,22.30
2017-12-21T07:34:21.763Z,20.50
2017-12-21T07:35:21.737Z,20.80
2017-12-21T07:36:21.672Z,18.70
2017-12-21T07:37:21.631Z,19.60
2017-12-21T07:38:21.591Z,21.40
2017-12-21T07:39:21.553Z,22.40
2017-12-21T07:40:21.522Z,22.80
2017-12-21T07:41:21.569Z,23.10
2017-12-21T07:42:21.439Z,21.90
2017-12-21T07:43:21.402Z,25.80
2017-12-21T07:44:21.375Z,22.80
2017-12-21T07:45:21.316Z,19.80
2017-12-21T07:46:21.273Z,21.90
2017-12-21T07:47:21.235Z,18.50
2017-12-21T07:48:21.199Z,17.30
2017-12-21T07:49:21.162Z,18.10
2017-12-21T07:50:21.118Z,20.30
2017-12-21T07:51:21.077Z,21.00
2017-12-21T07:52:21.036Z,20.40
2017-12-21T07:53:21.050Z,20.30
2017-12-21T07:54:20.968Z,24.00
2017-12-21T07:55:20.918Z,25.30
2017-12-21T07:56:20.875Z,23.10
2017-12-21T07:57:20.840Z,22.80
2017-12-21T07:58:20.799Z,21.50
2017-12-21T07:59:20.760Z,26.60
2017-12-21T08:00:20.723Z,22.70
2017-12-21T08:01:20.675Z,23.40
2017-12-21T08:02:20.646Z,22.40
2017-12-21T08:03:20.600Z,25.10
2017-12-21T08:04:20.565Z,24.90
2017-12-21T08:05:20.518Z,24.00
2017-12-21T08:06:20.480Z,24.80
2017-12-21T08:07:20.479Z,28.90
2017-12-21T08:08:20.408Z,24.80
2017-12-21T08:09:20.371Z,27.20
2017-12-21T08:10:20.357Z,25.80
2017-12-21T08:11:20.284Z,27.50
2017-12-21T08:12:20.240Z,29.20
2017-12-21T08:13:20.202Z,28.70
2017-12-21T08:14:20.160Z,29.60
2017-12-21T08:15:20.119Z,27.80
2017-12-21T08:16:20.081Z,28.40
2017-12-21T08:17:20.056Z,30.90
2017-12-21T08:18:20.001Z,29.90
2017-12-21T08:19:19.958Z,31.50
2017-12-21T08:20:19.920Z,31.50
2017-12-21T08:21:19.889Z,30.70
2017-12-21T08:22:19.840Z,27.80
2017-12-21T08:23:19.800Z,28.00
2017-12-21T08:24:19.763Z,32.70
2017-12-21T08:25:19.716Z,31.30
2017-12-21T08:26:19.697Z,30.80
2017-12-21T08:27:19.640Z,27.90
2017-12-21T08:28:19.622Z,31.90
2017-12-21T08:29:19.562Z,31.10
2017-12-21T08:30:19.521Z,30.40
2017-12-21T08:31:19.480Z,30.30
2017-12-21T08:32:19.448Z,28.30
2017-12-21T08:33:19.405Z,29.00
2017-12-21T08:34:19.381Z,32.00
2017-12-21T08:35:19.325Z,27.40
2017-12-21T08:36:19.289Z,28.30
2017-12-21T08:37:19.245Z,28.10
2017-12-21T08:38:19.199Z,29.30
2017-12-21T08:39:19.168Z,26.50
2017-12-21T08:40:19.125Z,24.30
2017-12-21T08:41:19.087Z,26.80
2017-12-21T08:42:19.041Z,27.40
2017-12-21T08:43:19.007Z,27.90
2017-12-21T08:44:18.964Z,27.30
2017-12-21T08:45:18.932Z,25.60
2017-12-21T08:46:18.883Z,23.20
2017-12-21T08:47:18.841Z,21.60
2017-12-21T08:48:18.815Z,22.20
2017-12-21T08:49:18.787Z,25.80
2017-12-21T08:50:18.726Z,26.80
2017-12-21T08:51:18.695Z,24.30
2017-12-21T08:52:18.658Z,25.00
2017-12-21T08:53:18.627Z,23.10
2017-12-21T08:54:18.585Z,25.10
2017-12-21T08:55:18.527Z,22.70
2017-12-21T08:56:18.521Z,23.20
2017-12-21T08:57:18.463Z,21.70
2017-12-21T08:58:18.404Z,25.20
2017-12-21T08:59:18.375Z,21.50
2017-12-21T09:00:18.333Z,20.50
2017-12-21T09:01:18.281Z,20.90
2017-12-21T09:02:18.252Z,21.50
2017-12-21T09:03:18.208Z,21.10
2017-12-21T09:04:18.162Z,19.60
2017-12-21T09:05:18.124Z,19.20
2017-12-21T09:06:18.084Z,19.40
2017-12-21T09:07:18.074Z,17.20
2017-12-21T09:08:18.004Z,17.70
2017-12-21T09:09:17.986Z,17.70
2017-12-21T09:10:17.928Z,17.80
2017-12-21T09:11:17.895Z,17.80
2017-12-21T09:12:17.854Z,19.80
2017-12-21T09:13:17.806Z,19.60
2017-12-21T09:14:17.768Z,18.20
2017-12-21T09:15:17.729Z,18.00
2017-12-21T09:16:17.690Z,16.60
2017-12-21T09:17:17.659Z,17.60
2017-12-21T09:18:17.616Z,16.00
2017-12-21T09:19:17.570Z,17.80
2017-12-21T09:20:17.527Z,16.10
2017-12-21T09:21:17.490Z,16.70
2017-12-21T09:22:17.450Z,16.50
2017-12-21T09:23:17.416Z,15.50
2017-12-21T09:24:17.368Z,16.00
2017-12-21T09:25:17.333Z,16.00
2017-12-21T09:26:17.296Z,15.60
2017-12-21T09:27:17.248Z,14.20
2017-12-21T09:28:17.217Z,14.40
2017-12-21T09:29:17.169Z,15.30
2017-12-21T09:30:17.139Z,13.80
2017-12-21T09:31:17.109Z,14.60
2017-12-21T09:32:17.052Z,13.50
2017-12-21T09:33:17.020Z,13.50
2017-12-21T09:34:16.975Z,14.80
2017-12-21T09:35:16.932Z,16.10
2017-12-21T09:36:16.893Z,14.00
2017-12-21T09:37:16.854Z,16.70
2017-12-21T09:38:16.839Z,14.40
2017-12-21T09:39:16.774Z,14.90
2017-12-21T09:40:16.741Z,13.00
2017-12-21T09:41:16.696Z,12.00
2017-12-21T09:42:16.658Z,12.90
2017-12-21T09:43:16.616Z,14.30
2017-12-21T09:44:16.585Z,11.70
2017-12-21T09:45:16.541Z,12.90
2017-12-21T09:46:16.500Z,12.80
2017-12-21T09:47:16.458Z,11.20
2017-12-21T09:48:16.419Z,11.40
2017-12-21T09:49:16.380Z,10.90
2017-12-21T09:50:16.357Z,12.20
2017-12-21T09:51:16.304Z,10.20
2017-12-21T09:52:16.262Z,11.00
2017-12-21T09:53:16.291Z,11.40
2017-12-21T09:54:16.201Z,13.40
2017-12-21T09:55:16.154Z,11.20
2017-12-21T09:56:16.124Z,10.30
2017-12-21T09:57:16.175Z,11.90
2017-12-21T09:58:16.052Z,10.20
2017-12-21T09:59:15.988Z,10.10
2017-12-21T10:00:15.944Z,10.70
2017-12-21T10:01:15.931Z,9.00
2017-12-21T10:02:15.873Z,9.90
2017-12-21T10:03:15.884Z,10.10
2017-12-21T10:04:15.975Z,10.60
2017-12-21T10:05:15.752Z,10.30
2017-12-21T10:06:15.717Z,9.90
2017-12-21T10:07:15.670Z,10.00
2017-12-21T10:08:15.631Z,10.70
2017-12-21T10:09:15.593Z,9.70
2017-12-21T10:10:15.556Z,10.40
2017-12-21T10:11:15.517Z,9.90
2017-12-21T10:12:15.475Z,11.10
2017-12-21T10:13:15.449Z,8.90
2017-12-21T10:14:15.398Z,8.40
2017-12-21T10:15:15.356Z,9.10
2017-12-21T10:16:15.318Z,9.00
2017-12-21T10:17:15.279Z,12.30
2017-12-21T10:18:15.238Z,9.50
2017-12-21T10:19:15.203Z,8.90
2017-12-21T10:20:15.173Z,8.70
2017-12-21T10:21:15.129Z,9.20
2017-12-21T10:22:15.084Z,9.30
2017-12-21T10:23:15.047Z,7.90
2017-12-21T10:24:15.023Z,9.70
2017-12-21T10:25:14.967Z,8.40
2017-12-21T10:26:15.120Z,8.90
2017-12-21T10:27:14.888Z,7.80
2017-12-21T10:28:14.856Z,8.70
2017-12-21T10:29:14.818Z,9.30
2017-12-21T10:30:14.770Z,8.90
2017-12-21T10:31:14.735Z,9.20
2017-12-21T10:32:14.696Z,8.80
2017-12-21T10:33:14.656Z,10.00
2017-12-21T10:34:14.615Z,8.60
2017-12-21T10:35:14.580Z,9.70
2017-12-21T10:36:14.551Z,8.60
2017-12-21T10:37:14.507Z,8.20
2017-12-21T10:38:14.471Z,8.40
2017-12-21T10:39:14.467Z,9.20
2017-12-21T10:40:14.501Z,9.00
2017-12-21T10:41:14.344Z,8.80
2017-12-21T10:42:14.302Z,9.60
2017-12-21T10:43:14.267Z,8.20
2017-12-21T10:44:14.250Z,9.50
2017-12-21T10:45:14.187Z,10.00
2017-12-21T10:46:14.166Z,10.10
2017-12-21T10:47:14.131Z,11.10
2017-12-21T10:48:14.075Z,8.40
2017-12-21T10:49:14.031Z,9.30
2017-12-21T10:50:14.003Z,10.20
2017-12-21T10:51:13.954Z,11.00
2017-12-21T10:52:13.968Z,10.80
2017-12-21T10:53:13.872Z,12.50
2017-12-21T10:54:13.900Z,10.00
2017-12-21T10:55:13.828Z,10.70
2017-12-21T10:56:13.766Z,10.40
2017-12-21T10:57:13.714Z,9.50
2017-12-21T10:58:13.681Z,9.90
2017-12-21T10:59:13.651Z,9.50
2017-12-21T11:00:13.600Z,9.70
2017-12-21T11:01:13.564Z,12.10
2017-12-21T11:02:13.523Z,11.20
2017-12-21T11:03:13.481Z,10.50
2017-12-21T11:04:13.442Z,11.80
2017-12-21T11:05:13.406Z,12.00
2017-12-21T11:06:13.369Z,10.60
2017-12-21T11:07:13.325Z,11.60
2017-12-21T11:08:13.303Z,10.10
2017-12-21T11:09:13.245Z,11.90
2017-12-21T11:10:13.215Z,9.70
2017-12-21T11:11:13.169Z,9.20
2017-12-21T11:12:13.142Z,10.00
2017-12-21T11:13:13.096Z,9.70
2017-12-21T11:14:13.054Z,10.50
2017-12-21T11:15:13.011Z,14.00
2017-12-21T11:16:12.975Z,9.20
2017-12-21T11:17:12.937Z,11.30
2017-12-21T11:18:12.906Z,9.80
2017-12-21T11:19:12.936Z,10.40
2017-12-21T11:20:12.833Z,9.80
2017-12-21T11:21:12.793Z,9.60
2017-12-21T11:22:12.744Z,10.20
2017-12-21T11:23:12.805Z,10.90
2017-12-21T11:24:12.689Z,10.60
2017-12-21T11:25:12.624Z,11.50
2017-12-21T11:26:12.585Z,10.10
2017-12-21T11:27:12.569Z,10.90
2017-12-21T11:28:12.510Z,13.20
2017-12-21T11:29:12.475Z,10.90
2017-12-21T11:30:12.436Z,10.80
2017-12-21T11:31:12.391Z,9.60
2017-12-21T11:32:12.365Z,11.00
2017-12-21T11:33:12.330Z,11.20
2017-12-21T11:34:12.279Z,10.00
2017-12-21T11:35:12.251Z,9.70
2017-12-21T11:36:12.195Z,12.30
2017-12-21T11:37:12.157Z,11.60
2017-12-21T11:38:12.119Z,10.50
2017-12-21T11:39:12.079Z,12.10
2017-12-21T11:40:12.040Z,12.00
2017-12-21T11:41:12.010Z,13.80
2017-12-21T11:42:11.962Z,15.40
2017-12-21T11:43:11.926Z,10.80
2017-12-21T11:44:11.895Z,12.00
2017-12-21T11:45:11.844Z,11.50
2017-12-21T11:46:11.856Z,17.40
2017-12-21T11:47:11.769Z,12.10
2017-12-21T11:48:11.730Z,13.70
2017-12-21T11:49:11.700Z,13.10
2017-12-21T11:50:11.652Z,11.50
2017-12-21T11:51:11.620Z,11.50
2017-12-21T11:52:11.574Z,12.10
2017-12-21T11:53:11.536Z,11.00
2017-12-21T11:54:11.508Z,12.60
2017-12-21T11:55:11.473Z,11.40
2017-12-21T11:56:11.417Z,11.00
2017-12-21T11:57:11.376Z,11.20
2017-12-21T11:58:11.389Z,11.30
2017-12-21T11:59:11.305Z,11.00
2017-12-21T12:00:11.260Z,10.90
2017-12-21T12:01:11.251Z,11.20
2017-12-21T12:02:11.191Z,10.30
2017-12-21T12:03:11.156Z,11.00
2017-12-21T12:04:11.128Z,10.60
2017-12-21T12:05:11.064Z,11.50
2017-12-21T12:06:11.025Z,11.90
2017-12-21T12:07:11.007Z,11.40
2017-12-21T12:08:10.957Z,13.10
2017-12-21T12:09:10.906Z,11.50
2017-12-21T12:10:10.868Z,11.70
2017-12-21T12:11:10.831Z,10.80
2017-12-21T12:12:10.797Z,10.20
2017-12-21T12:13:10.749Z,9.70
2017-12-21T12:14:10.720Z,10.30
2017-12-21T12:15:10.675Z,11.30
2017-12-21T12:16:10.633Z,11.00
2017-12-21T12:17:10.593Z,12.30
2017-12-21T12:18:10.563Z,12.00
2017-12-21T12:19:10.522Z,11.50
2017-12-21T12:20:10.480Z,11.20
2017-12-21T12:21:10.471Z,11.30
2017-12-21T12:22:10.565Z,12.50
2017-12-21T12:23:10.386Z,12.60
2017-12-21T12:24:10.322Z,13.10
2017-12-21T12:25:10.280Z,11.80
2017-12-21T12:26:10.255Z,12.80
2017-12-21T12:27:10.260Z,13.80
2017-12-21T12:28:12.973Z,12.90
2017-12-21T12:29:10.129Z,12.90
2017-12-21T12:30:10.087Z,11.60
2017-12-21T12:31:10.058Z,14.90
2017-12-21T12:32:10.011Z,13.80
2017-12-21T12:33:09.969Z,13.80
2017-12-21T12:34:09.930Z,12.60
2017-12-21T12:35:09.894Z,13.30
2017-12-21T12:36:09.856Z,13.10
2017-12-21T12:37:09.814Z,13.00
2017-12-21T12:38:09.779Z,12.00
2017-12-21T12:39:09.733Z,13.30
2017-12-21T12:40:09.695Z,12.00
2017-12-21T12:41:09.657Z,10.80
2017-12-21T12:42:09.622Z,11.20
2017-12-21T12:43:09.582Z,13.10
2017-12-21T12:44:09.546Z,11.60
2017-12-21T12:45:09.500Z,11.50
2017-12-21T12:46:09.461Z,12.30
2017-12-21T12:47:09.423Z,11.50
2017-12-21T12:48:09.380Z,12.50
2017-12-21T12:49:09.356Z,11.40
2017-12-21T12:50:09.305Z,12.50
2017-12-21T12:51:09.274Z,12.00
2017-12-21T12:52:09.244Z,12.00
2017-12-21T12:53:09.193Z,12.60
2017-12-21T12:54:09.151Z,13.90
2017-12-21T12:55:09.109Z,12.80
2017-12-21T12:56:09.068Z,14.50